KAOO/AOO METAR and TAF weather

Enter ICAO airport designator
Station Type Date Time Source
KAOO METAR 2022/06/27 17:53 UTC NOAA

KAOO 271753Z AUTO 31011G18KT 10SM CLR 24/12 A3006 RMK AO2 SLP168 T02440122 10250 20194 58001


Station Type Date Time Source
KAOO Decoded METAR 2022/06/27 17:53 UTC NOAA

ALTOONA-BLAIR COUNTY AIRPORT, PA, United States (KAOO) 40-18N 78-19W 455M
Jun 27, 2022 - 01:53 PM EDT / 2022.06.27 1753 UTC
Wind: from the NW (310 degrees) at 13 MPH (11 KT) gusting to 21 MPH (18 KT):0
Visibility: 10 mile(s):0
Sky conditions: clear
Temperature: 75.9 F (24.4 C)
Dew Point: 54.0 F (12.2 C)
Relative Humidity: 46%
Pressure (altimeter): 30.06 in. Hg (1017 hPa)
Pressure tendency: 0.00 inches (0.1 hPa) lower than three hours ago
ob: KAOO 271753Z AUTO 31011G18KT 10SM CLR 24/12 A3006 RMK AO2 SLP168 T02440122 10250 20194 58001
cycle: 18

Station Type Date Time Source
KAOO TAF 2022/06/27 18:48 UTC NOAA

TAF KAOO 271747Z 2718/2818 30012G20KT P6SM SKC
FM280100 29005KT P6SM SKC
FM281500 33007KT P6SM SKC

Example: see airport list